Flight Track Log - Related Links

Times and Time Zones

All times are in EDT time to prevent confusion due to time zone crossing. See the TGO993 flight status page for this flight to view local times or setup timezone preferences in your user account.

Time Position Orientation Groundspeed Altitude Reporting Facility
EDT Latitude Longitude Course Direction KTS MPH feet Rate Location/Type
Tue 07:26:11 PM 49.3500 -102.3333 69° East 190 219 13,000  Level Winnipeg Center
Tue 07:27:11 PM 49.3667 -102.2667 69° East 190 219 13,000  Level Winnipeg Center
Tue 07:28:11 PM 49.4000 -102.1833 58° Northeast 200 230 13,000  Level Winnipeg Center
Tue 07:29:11 PM 49.4000 -102.1167 90° East 190 219 13,000  Level Winnipeg Center
Tue 07:30:11 PM 49.4167 -102.0333 73° East 190 219 13,000  Level Winnipeg Center
Tue 07:31:11 PM 49.4333 -101.9500 73° East 200 230 13,000  Level Winnipeg Center
Tue 07:32:11 PM 49.4500 -101.8833 69° East 190 219 13,000 -50 Level Winnipeg Center
Tue 07:33:11 PM 49.4833 -101.7833 63° Northeast 200 230 12,900  Descending Winnipeg Center
Tue 07:34:11 PM 49.5000 -101.7000 73° East 200 230 13,000 50 Climbing Winnipeg Center
Tue 07:35:11 PM 49.5167 -101.6333 69° East 200 230 13,000  Level Winnipeg Center
Tue 07:36:11 PM 49.5333 -101.5500 73° East 200 230 13,000  Level Winnipeg Center
Tue 07:37:11 PM 49.5333 -101.4833 90° East 200 230 13,000  Level Winnipeg Center
Tue 07:38:11 PM 49.5667 -101.4000 58° Northeast 200 230 13,000  Level Winnipeg Center
Tue 07:39:11 PM 49.5833 -101.3333 69° East 200 230 13,000  Level Winnipeg Center
Tue 07:40:11 PM 49.6000 -101.2333 76° East 200 230 13,000  Level Winnipeg Center
Tue 07:41:11 PM 49.6167 -101.1500 73° East 200 230 13,000  Level Winnipeg Center
Tue 07:42:11 PM 49.6333 -101.0667 73° East 200 230 13,000  Level Winnipeg Center
Tue 07:43:11 PM 49.6500 -101.0000 69° East 200 230 13,000  Level Winnipeg Center
Tue 07:44:11 PM 49.6833 -100.9167 58° Northeast 200 230 13,000  Level Winnipeg Center
Tue 07:45:11 PM 49.7000 -100.8167 76° East 200 230 13,000  Level Winnipeg Center
Tue 07:46:11 PM 49.7167 -100.7500 69° East 200 230 13,000  Level Winnipeg Center
Tue 07:47:11 PM 49.7333 -100.6667 73° East 200 230 13,000  Level Winnipeg Center
Tue 07:48:11 PM 49.7500 -100.6000 69° East 200 230 13,000  Level Winnipeg Center
Tue 07:49:11 PM 49.7667 -100.5167 73° East 200 230 13,000  Level Winnipeg Center
Tue 07:50:11 PM 49.7833 -100.4333 73° East 200 230 13,000  Level Winnipeg Center
Tue 07:51:11 PM 49.8000 -100.3333 75° East 200 230 13,000  Level Winnipeg Center
Tue 07:52:11 PM 49.8167 -100.2667 69° East 200 230 13,000  Level Winnipeg Center
Tue 07:53:11 PM 49.8333 -100.1833 73° East 200 230 13,000  Level Winnipeg Center
Tue 07:54:11 PM 49.8500 -100.1000 73° East 200 230 13,000  Level Winnipeg Center
Tue 07:55:11 PM 49.8667 -100.0333 69° East 200 230 13,000  Level Winnipeg Center
Tue 07:56:11 PM 49.8833 -99.9500 73° East 200 230 13,000  Level Winnipeg Center
Tue 07:57:11 PM 49.9000 -99.8667 73° East 190 219 13,000  Level Winnipeg Center
Tue 07:58:11 PM 49.8833 -99.7667 104° East 200 230 13,000  Level Winnipeg Center
Tue 07:59:11 PM 49.8833 -99.7000 90° East 200 230 13,000  Level Winnipeg Center
Tue 08:00:11 PM 49.8833 -99.6167 90° East 200 230 13,000  Level Winnipeg Center
Tue 08:01:11 PM 49.8667 -99.5167 104° East 200 230 13,000  Level Winnipeg Center
Tue 08:02:11 PM 49.8667 -99.4333 90° East 200 230 13,000  Level Winnipeg Center
Tue 08:03:11 PM 49.8667 -99.3500 90° East 200 230 13,000  Level Winnipeg Center
Tue 08:04:11 PM 49.8500 -99.2833 111° Southeast 190 219 13,000  Level Winnipeg Center
Tue 08:05:11 PM 49.8500 -99.1667 90° East 190 219 13,000 50 Level Winnipeg Center
Tue 08:06:11 PM 49.8500 -99.1000 90° East 190 219 13,100 50 Climbing Winnipeg Center
Tue 08:07:11 PM 49.8500 -99.0167 90° East 190 219 13,100  Level Winnipeg Center
Tue 08:08:11 PM 49.8500 -98.9333 90° East 200 230 13,100  Level Winnipeg Center
Tue 08:09:11 PM 49.8333 -98.8333 104° East 200 230 13,100  Level Winnipeg Center
Tue 08:10:11 PM 49.8333 -98.7500 90° East 200 230 13,100  Level Winnipeg Center
Tue 08:11:11 PM 49.8333 -98.6833 90° East 200 230 13,100  Level Winnipeg Center
Tue 08:12:11 PM 49.8167 -98.6000 107° East 200 230 13,100  Level Winnipeg Center
Tue 08:13:11 PM 49.8167 -98.5167 90° East 200 230 13,100 -50 Level Winnipeg Center
Tue 08:14:11 PM 49.8167 -98.4167 90° East 200 230 13,000 -50 Descending Winnipeg Center
Tue 08:15:11 PM 49.8000 -98.3333 107° East 200 230 13,000 -100 Level Winnipeg Center
Tue 08:16:11 PM 49.8000 -98.2333 90° East 200 230 12,800 -450 Descending Winnipeg Center
Tue 08:17:11 PM 49.7833 -98.1500 107° East 210 242 12,100 -850 Descending Winnipeg Center
Tue 08:18:11 PM 49.7833 -98.0833 90° East 200 230 11,100 -1,000 Descending Winnipeg Center
Tue 08:19:11 PM 49.7833 -97.9833 90° East 200 230 10,100 -950 Descending Winnipeg Center
Tue 08:20:11 PM 49.7833 -97.9000 90° East 190 219 9,200 -1,200 Descending Winnipeg Center
Tue 08:21:11 PM 49.7833 -97.8167 90° East 200 230 7,700 -1,350 Descending Winnipeg Center
Tue 08:22:11 PM 49.7833 -97.7500 90° East 200 230 6,500 -1,200 Descending Winnipeg Center
Tue 08:23:11 PM 49.7833 -97.6333 90° East 200 230 5,300 -1,200 Descending Winnipeg Center
Tue 08:24:11 PM 49.7833 -97.5667 90° East 190 219 4,100 -1,100 Descending Winnipeg Center
Tue 08:25:11 PM 49.7833 -97.4833 90° East 190 219 3,100 -550 Descending Winnipeg Center
Tue 08:26:11 PM 49.7833 -97.4000 90° East 170 196 3,000 -100 Descending Winnipeg Center
Tue 08:27:11 PM 49.8000 -97.3500 63° Northeast 150 173 2,900 -250 Descending Winnipeg Center
Tue 08:28:11 PM 49.8000 -97.3000 90° East 130 150 2,500 -550 Descending Winnipeg Center
Tue 08:29:11 PM 49.8167 -97.2500 63° Northeast 120 138 1,800 -600 Descending Winnipeg Center
Tue 08:30:11 PM 49.8667 -97.2500 360° North 120 138 1,300 -500 Descending Winnipeg Center
Tue 08:31:11 PM 49.8833 -97.2333 33° Northeast 90 104 800 -500 Descending Winnipeg Center

Login

Don't have an account? Register now (free) for customized features, flight alerts, and more!